Time;durP1;ratioP1;P1;durP2;ratioP2;P2;SDS_P1;SDS_P2;PMS_P1;PMS_P2;Temp;Humidity;BMP_temperature;BMP_pressure;BME280_temperature;BME280_humidity;BME280_pressure;Samples;Min_cycle;Max_cycle;Signal;HPM_P1;HPM_P2
2021/06/01 00:01:16;;;;;;;;;;;22.40;63.00;;;;;;4990941;28;74494;-63
2021/06/01 00:03:42;;;;;;;;;;;22.30;63.40;;;;;;4990636;28;75752;-70
2021/06/01 00:06:07;;;;;;;;;;;22.20;63.40;;;;;;4975765;28;75197;-66
2021/06/01 00:08:33;;;;;;;;;;;22.10;63.50;;;;;;4990728;28;75884;-64
2021/06/01 00:10:58;;;;;;;;;;;22.10;64.20;;;;;;4975708;28;75140;-67
2021/06/01 00:13:24;;;;;;;;;;;22.00;64.20;;;;;;4975915;28;75160;-66
2021/06/01 00:15:50;;;;;;;;;;;22.00;63.80;;;;;;4975683;28;74529;-68
2021/06/01 00:18:15;;;;;;;;;;;21.90;64.00;;;;;;4990669;28;76942;-64
2021/06/01 00:20:41;;;;;;;;;;;21.90;63.90;;;;;;4975583;28;75216;-63
2021/06/01 00:23:07;;;;;;;;;;;21.90;64.20;;;;;;4975775;28;75169;-64
2021/06/01 00:25:32;;;;;;;;;;;21.80;64.30;;;;;;4975238;28;75012;-63
2021/06/01 00:27:58;;;;;;;;;;;21.90;64.30;;;;;;4974361;28;77013;-63
2021/06/01 00:30:23;;;;;;;;;;;21.90;64.70;;;;;;4974077;28;76708;-64
2021/06/01 00:32:49;;;;;;;;;;;21.90;64.70;;;;;;4990269;28;75415;-63
2021/06/01 00:35:16;;;;;;;;;;;21.90;65.10;;;;;;4974106;28;77876;-63
2021/06/01 00:37:42;;;;;;;;;;;21.90;64.60;;;;;;4973636;28;77130;-63
2021/06/01 00:40:08;;;;;;;;;;;21.90;64.50;;;;;;4975413;28;74556;-63
2021/06/01 00:42:34;;;;;;;;;;;21.80;64.70;;;;;;4973714;28;77099;-62
2021/06/01 00:44:59;;;;;;;;;;;21.80;65.10;;;;;;4975471;28;75233;-66
2021/06/01 00:47:25;;;;;;;;;;;21.80;65.20;;;;;;4973710;28;74676;-67
2021/06/01 00:49:50;;;;;;;;;;;21.80;65.20;;;;;;4975141;28;75512;-66
2021/06/01 00:52:16;;;;;;;;;;;21.80;65.30;;;;;;4975097;28;75347;-65
2021/06/01 00:54:41;;;;;;;;;;;21.80;65.30;;;;;;4989684;28;77175;-63
2021/06/01 00:57:07;;;;;;;;;;;21.80;65.30;;;;;;4974805;28;74395;-66
2021/06/01 00:59:33;;;;;;;;;;;21.90;65.60;;;;;;4973546;28;78137;-65
2021/06/01 01:02:00;;;;;;;;;;;21.90;65.00;;;;;;4989970;28;75558;-64
2021/06/01 01:04:27;;;;;;;;;;;21.90;64.60;;;;;;4974281;28;75348;-62
2021/06/01 01:06:58;;;;;;;;;;;21.80;64.10;;;;;;4974678;28;75153;-63
2021/06/01 01:09:24;;;;;;;;;;;21.80;64.20;;;;;;4974956;28;75235;-65
2021/06/01 01:11:50;;;;;;;;;;;21.90;64.50;;;;;;4974737;28;74517;-64
2021/06/01 01:14:24;;;;;;;;;;;21.80;64.80;;;;;;4973470;28;78660;-62
2021/06/01 01:17:07;;;;;;;;;;;21.80;64.90;;;;;;4973373;28;77714;-62
2021/06/01 01:19:52;;;;;;;;;;;21.80;64.80;;;;;;4974959;28;75221;-62
2021/06/01 01:22:17;;;;;;;;;;;21.70;65.00;;;;;;4974973;28;75214;-67
2021/06/01 01:24:47;;;;;;;;;;;21.70;65.30;;;;;;4974703;28;75166;-68
2021/06/01 01:27:13;;;;;;;;;;;21.70;65.60;;;;;;4973015;28;76539;-66
2021/06/01 01:29:46;;;;;;;;;;;21.70;65.40;;;;;;4972944;28;76563;-66
2021/06/01 01:32:28;;;;;;;;;;;21.80;65.50;;;;;;4974672;28;75262;-64
2021/06/01 01:34:55;;;;;;;;;;;21.80;66.30;;;;;;4974276;28;75349;-65
2021/06/01 01:37:21;;;;;;;;;;;21.70;67.40;;;;;;4989283;28;76353;-68
2021/06/01 01:39:52;;;;;;;;;;;21.50;67.60;;;;;;4974488;28;75053;-63
2021/06/01 01:42:18;;;;;;;;;;;21.40;68.30;;;;;;4974448;28;75037;-64
2021/06/01 01:44:53;;;;;;;;;;;21.40;69.00;;;;;;4989933;28;74631;-64
2021/06/01 01:50:01;;;;;;;;;;;21.30;68.90;;;;;;4971174;28;74400;-65
2021/06/01 01:52:27;;;;;;;;;;;21.30;69.20;;;;;;4974172;28;75263;-65
2021/06/01 01:54:56;;;;;;;;;;;21.30;69.00;;;;;;4974026;28;75075;-64
2021/06/01 01:57:24;;;;;;;;;;;21.20;69.20;;;;;;4974242;28;75158;-67
2021/06/01 01:59:50;;;;;;;;;;;21.20;69.10;;;;;;4974212;28;75704;-65
2021/06/01 02:02:16;;;;;;;;;;;21.10;69.00;;;;;;4972527;28;76620;-66
2021/06/01 02:04:42;;;;;;;;;;;21.10;69.30;;;;;;4988773;28;77219;-70
2021/06/01 02:07:08;;;;;;;;;;;21.10;69.10;;;;;;4988786;28;75403;-66
2021/06/01 02:09:33;;;;;;;;;;;21.10;69.00;;;;;;4974201;28;75426;-69
2021/06/01 02:11:59;;;;;;;;;;;21.10;69.00;;;;;;4973871;28;75401;-69
2021/06/01 02:14:24;;;;;;;;;;;21.10;69.00;;;;;;4987953;28;75980;-68
2021/06/01 02:16:51;;;;;;;;;;;21.10;68.80;;;;;;4973642;28;75080;-65
2021/06/01 02:19:18;;;;;;;;;;;21.00;68.80;;;;;;4989098;28;76810;-67
2021/06/01 02:24:24;;;;;;;;;;;21.00;69.30;;;;;;4970787;28;75087;-62
2021/06/01 02:26:53;;;;;;;;;;;20.90;69.50;;;;;;4973731;28;75228;-65
2021/06/01 02:29:22;;;;;;;;;;;20.90;68.90;;;;;;4973867;28;75213;-65
2021/06/01 02:31:49;;;;;;;;;;;20.90;68.90;;;;;;4973778;28;74483;-64
2021/06/01 02:34:15;;;;;;;;;;;20.90;69.10;;;;;;4972737;28;76348;-66
2021/06/01 02:36:42;;;;;;;;;;;20.90;69.00;;;;;;4972251;28;77354;-67
2021/06/01 02:39:08;;;;;;;;;;;20.90;68.90;;;;;;4973622;28;74999;-65
2021/06/01 02:41:34;;;;;;;;;;;20.90;68.90;;;;;;4973499;28;74938;-64
2021/06/01 02:44:00;;;;;;;;;;;20.90;68.70;;;;;;4988396;28;75598;-63
2021/06/01 02:46:26;;;;;;;;;;;20.90;68.70;;;;;;4988325;28;78074;-65
2021/06/01 02:48:53;;;;;;;;;;;20.90;68.50;;;;;;4973512;28;74656;-66
2021/06/01 02:51:19;;;;;;;;;;;20.80;68.50;;;;;;4988037;28;77292;-67
2021/06/01 02:53:54;;;;;;;;;;;20.70;68.80;;;;;;4988432;28;77537;-68
2021/06/01 02:56:21;;;;;;;;;;;20.70;69.00;;;;;;4972580;28;74982;-63
2021/06/01 02:58:47;;;;;;;;;;;20.70;68.90;;;;;;4973247;28;75771;-66
2021/06/01 03:01:14;;;;;;;;;;;20.70;68.80;;;;;;4971855;28;76916;-62
2021/06/01 03:03:47;;;;;;;;;;;20.60;69.10;;;;;;4973286;28;75098;-66
2021/06/01 03:06:13;;;;;;;;;;;20.60;69.00;;;;;;4987819;28;74841;-64
2021/06/01 03:08:39;;;;;;;;;;;20.50;69.10;;;;;;4973450;28;74469;-63
2021/06/01 03:11:05;;;;;;;;;;;20.50;68.70;;;;;;4973150;28;75197;-63
2021/06/01 03:13:31;;;;;;;;;;;20.50;68.80;;;;;;4987692;28;78069;-62
2021/06/01 03:15:56;;;;;;;;;;;20.50;68.70;;;;;;4973172;28;74429;-62
2021/06/01 03:18:22;;;;;;;;;;;20.60;68.80;;;;;;4973307;28;74583;-62
2021/06/01 03:20:48;;;;;;;;;;;20.50;68.90;;;;;;4973022;28;75194;-64
2021/06/01 03:23:14;;;;;;;;;;;20.50;69.00;;;;;;4973109;28;74497;-69
2021/06/01 03:25:40;;;;;;;;;;;20.60;69.10;;;;;;4973478;28;75708;-61
2021/06/01 03:28:06;;;;;;;;;;;20.60;69.00;;;;;;4979554;28;75114;-61
2021/06/01 03:30:33;;;;;;;;;;;20.50;68.60;;;;;;4994260;28;77058;-66
2021/06/01 03:32:59;;;;;;;;;;;20.50;68.70;;;;;;4979381;28;75271;-62
2021/06/01 03:35:25;;;;;;;;;;;20.50;69.30;;;;;;4979128;28;75191;-61
2021/06/01 03:37:51;;;;;;;;;;;20.50;69.40;;;;;;4979532;28;75703;-66
2021/06/01 03:40:16;;;;;;;;;;;20.50;69.70;;;;;;4979219;28;75390;-69
2021/06/01 03:42:42;;;;;;;;;;;20.50;69.60;;;;;;4979055;28;75137;-67
2021/06/01 03:45:08;;;;;;;;;;;20.50;69.30;;;;;;4994167;28;77175;-70
2021/06/01 03:47:34;;;;;;;;;;;20.50;69.20;;;;;;4978906;28;75731;-67
2021/06/01 03:49:59;;;;;;;;;;;20.50;69.00;;;;;;4979687;28;74705;-66
2021/06/01 03:52:25;;;;;;;;;;;20.40;69.20;;;;;;4978978;28;75693;-67
2021/06/01 03:54:50;;;;;;;;;;;20.40;69.10;;;;;;4978976;28;75249;-66
2021/06/01 03:57:16;;;;;;;;;;;20.50;68.70;;;;;;4978700;28;75209;-65
2021/06/01 03:59:42;;;;;;;;;;;20.50;68.80;;;;;;4978879;28;75551;-69
2021/06/01 04:02:07;;;;;;;;;;;20.50;68.90;;;;;;4994391;28;75168;-71
2021/06/01 04:04:34;;;;;;;;;;;20.50;69.00;;;;;;4994009;28;77489;-70
2021/06/01 04:06:59;;;;;;;;;;;20.60;69.10;;;;;;4977475;28;78509;-65
2021/06/01 04:09:25;;;;;;;;;;;20.70;69.10;;;;;;4979119;28;74539;-65
2021/06/01 04:11:51;;;;;;;;;;;20.70;68.90;;;;;;4978851;28;74980;-68
2021/06/01 04:14:18;;;;;;;;;;;20.70;68.90;;;;;;4978988;28;75282;-66
2021/06/01 04:16:44;;;;;;;;;;;20.70;68.60;;;;;;4977493;28;78426;-62
2021/06/01 04:19:10;;;;;;;;;;;20.70;68.60;;;;;;4978735;28;75293;-61
2021/06/01 04:21:35;;;;;;;;;;;20.70;69.00;;;;;;4977027;28;77407;-61
2021/06/01 04:24:01;;;;;;;;;;;20.60;69.40;;;;;;4978882;28;74923;-64
2021/06/01 04:26:29;;;;;;;;;;;20.60;70.00;;;;;;4993506;28;75436;-63
2021/06/01 04:28:55;;;;;;;;;;;20.50;70.20;;;;;;4977785;28;77317;-63
2021/06/01 04:31:21;;;;;;;;;;;20.40;70.30;;;;;;4978892;28;75265;-63
2021/06/01 04:33:46;;;;;;;;;;;20.40;70.80;;;;;;4993891;28;77775;-65
2021/06/01 04:36:12;;;;;;;;;;;20.20;71.00;;;;;;4978723;28;75101;-67
2021/06/01 04:38:37;;;;;;;;;;;20.10;71.50;;;;;;4975601;28;75044;-63
2021/06/01 04:41:03;;;;;;;;;;;20.10;71.50;;;;;;4990199;28;77614;-64
2021/06/01 04:43:29;;;;;;;;;;;20.00;71.30;;;;;;4976106;28;74431;-65
2021/06/01 04:45:54;;;;;;;;;;;20.10;71.60;;;;;;4975167;28;75547;-67
2021/06/01 04:48:20;;;;;;;;;;;20.10;71.70;;;;;;4975452;28;75690;-69
2021/06/01 04:50:46;;;;;;;;;;;20.10;71.80;;;;;;4990130;28;77587;-65
2021/06/01 04:53:12;;;;;;;;;;;20.10;71.70;;;;;;4975484;28;75338;-64
2021/06/01 04:55:37;;;;;;;;;;;20.00;71.80;;;;;;4973502;28;77050;-65
2021/06/01 04:58:03;;;;;;;;;;;20.00;72.10;;;;;;4975153;28;75163;-65
2021/06/01 05:00:28;;;;;;;;;;;20.00;72.20;;;;;;4973888;28;77000;-66
2021/06/01 05:02:54;;;;;;;;;;;20.00;72.10;;;;;;4975052;28;75259;-65
2021/06/01 05:05:20;;;;;;;;;;;19.90;72.30;;;;;;4989993;28;76561;-71
2021/06/01 05:07:45;;;;;;;;;;;19.90;72.30;;;;;;4989799;28;77553;-63
2021/06/01 05:10:11;;;;;;;;;;;20.00;72.40;;;;;;4989644;28;76203;-71
2021/06/01 05:12:37;;;;;;;;;;;20.00;72.10;;;;;;4974829;28;75701;-67
2021/06/01 05:15:02;;;;;;;;;;;20.00;72.20;;;;;;4975106;28;75009;-69
2021/06/01 05:17:28;;;;;;;;;;;20.00;72.30;;;;;;4975147;28;74442;-70
2021/06/01 05:19:54;;;;;;;;;;;20.10;71.80;;;;;;4973034;28;77540;-67
2021/06/01 05:22:19;;;;;;;;;;;20.10;71.60;;;;;;4973210;28;75852;-63
2021/06/01 05:24:45;;;;;;;;;;;20.00;71.80;;;;;;4974895;28;75132;-63
2021/06/01 05:27:12;;;;;;;;;;;20.00;72.00;;;;;;4974698;28;75214;-63
2021/06/01 05:29:42;;;;;;;;;;;19.90;72.40;;;;;;4974668;28;75322;-64
2021/06/01 05:32:53;;;;;;;;;;;20.00;72.60;;;;;;4974707;28;75189;-64
2021/06/01 05:35:01;;;;;;;;;;;19.90;72.60;;;;;;4974592;28;74708;-66
2021/06/01 05:37:28;;;;;;;;;;;20.00;72.70;;;;;;4989025;28;75309;-69
2021/06/01 05:39:53;;;;;;;;;;;20.00;72.60;;;;;;4989231;28;78450;-69
2021/06/01 05:42:19;;;;;;;;;;;20.00;72.70;;;;;;4974375;28;75203;-66
2021/06/01 05:44:47;;;;;;;;;;;20.10;72.70;;;;;;4989638;28;75174;-65
2021/06/01 05:47:16;;;;;;;;;;;20.10;72.50;;;;;;4972661;28;75383;-65
2021/06/01 05:49:41;;;;;;;;;;;20.10;72.50;;;;;;4974283;28;75059;-65
2021/06/01 05:52:07;;;;;;;;;;;20.00;72.40;;;;;;4974415;28;75119;-66
2021/06/01 05:54:33;;;;;;;;;;;20.00;72.60;;;;;;4989175;28;77692;-63
2021/06/01 05:56:58;;;;;;;;;;;20.10;72.60;;;;;;4988609;28;77936;-64
2021/06/01 05:59:24;;;;;;;;;;;20.00;72.20;;;;;;4972302;28;77439;-69
2021/06/01 06:01:50;;;;;;;;;;;20.00;72.20;;;;;;4989072;28;75400;-68
2021/06/01 06:04:15;;;;;;;;;;;20.00;72.30;;;;;;4972389;28;77096;-67
2021/06/01 06:06:41;;;;;;;;;;;20.00;72.70;;;;;;4974196;28;74488;-68
2021/06/01 06:09:07;;;;;;;;;;;20.10;72.60;;;;;;4974063;28;75195;-64
2021/06/01 06:11:33;;;;;;;;;;;20.10;72.20;;;;;;4973687;28;75566;-63
2021/06/01 06:13:58;;;;;;;;;;;20.10;71.90;;;;;;4973937;28;75605;-63
2021/06/01 06:16:25;;;;;;;;;;;20.00;71.90;;;;;;4973867;28;75189;-63
2021/06/01 06:18:52;;;;;;;;;;;20.10;72.10;;;;;;4972017;28;74655;-64
2021/06/01 06:21:18;;;;;;;;;;;20.20;72.00;;;;;;4988792;28;74696;-64
2021/06/01 06:23:43;;;;;;;;;;;20.30;72.00;;;;;;4978743;28;74953;-64
2021/06/01 06:26:09;;;;;;;;;;;20.30;71.90;;;;;;4990270;28;77606;-64
2021/06/01 06:28:35;;;;;;;;;;;20.30;71.90;;;;;;4991399;28;74819;-63
2021/06/01 06:31:01;;;;;;;;;;;20.40;71.80;;;;;;4992843;28;75444;-63
2021/06/01 06:33:27;;;;;;;;;;;20.40;71.70;;;;;;4990946;28;77831;-64
2021/06/01 06:35:52;;;;;;;;;;;20.40;71.80;;;;;;4991128;28;76330;-65
2021/06/01 06:38:18;;;;;;;;;;;20.40;72.00;;;;;;4992835;28;75832;-66
2021/06/01 06:40:50;;;;;;;;;;;20.50;71.60;;;;;;4992648;28;74495;-65
2021/06/01 06:43:15;;;;;;;;;;;20.50;71.60;;;;;;4993171;28;75226;-65
2021/06/01 06:45:41;;;;;;;;;;;20.60;71.60;;;;;;4991684;28;75772;-66
2021/06/01 06:48:09;;;;;;;;;;;20.70;71.30;;;;;;4992536;28;75171;-66
2021/06/01 06:50:36;;;;;;;;;;;20.80;70.70;;;;;;4990496;28;77229;-66
2021/06/01 06:53:02;;;;;;;;;;;20.70;70.80;;;;;;4991338;28;76158;-66
2021/06/01 06:55:27;;;;;;;;;;;20.80;70.20;;;;;;4992374;28;75252;-66
2021/06/01 06:57:53;;;;;;;;;;;20.70;70.10;;;;;;4990772;28;75306;-65
2021/06/01 07:00:20;;;;;;;;;;;20.70;70.20;;;;;;4990942;28;77006;-63
2021/06/01 07:02:46;;;;;;;;;;;20.90;69.90;;;;;;4990602;28;75823;-63
2021/06/01 07:05:12;;;;;;;;;;;21.00;69.70;;;;;;4992592;28;75434;-65
2021/06/01 07:07:39;;;;;;;;;;;21.10;69.20;;;;;;4990221;28;75220;-64
2021/06/01 07:10:05;;;;;;;;;;;21.20;68.60;;;;;;4992544;28;75011;-64
2021/06/01 07:12:30;;;;;;;;;;;21.30;68.00;;;;;;4990756;28;76066;-64
2021/06/01 07:15:11;;;;;;;;;;;21.30;68.20;;;;;;4992156;28;75667;-65
2021/06/01 07:17:38;;;;;;;;;;;21.10;68.00;;;;;;4992464;28;75219;-64
2021/06/01 07:20:05;;;;;;;;;;;21.20;68.60;;;;;;4992230;28;74759;-65
2021/06/01 07:22:31;;;;;;;;;;;21.40;68.20;;;;;;4992289;28;74752;-65
2021/06/01 07:24:56;;;;;;;;;;;21.50;67.90;;;;;;4988227;28;77872;-65
2021/06/01 07:27:22;;;;;;;;;;;21.50;67.60;;;;;;4990714;28;75491;-65
2021/06/01 07:29:48;;;;;;;;;;;21.60;67.70;;;;;;4990757;28;75513;-66
2021/06/01 07:32:13;;;;;;;;;;;21.70;67.90;;;;;;4990541;28;76265;-66
2021/06/01 07:34:39;;;;;;;;;;;21.90;67.40;;;;;;4991034;28;76555;-65
2021/06/01 07:37:05;;;;;;;;;;;21.90;66.80;;;;;;4992156;28;75591;-65
2021/06/01 07:39:30;;;;;;;;;;;22.00;66.70;;;;;;4992394;28;75442;-65
2021/06/01 07:41:56;;;;;;;;;;;22.00;66.50;;;;;;4991827;28;74656;-65
2021/06/01 07:44:21;;;;;;;;;;;22.10;66.30;;;;;;4992507;28;75783;-64
2021/06/01 07:46:47;;;;;;;;;;;22.20;66.00;;;;;;4990441;28;78560;-64
2021/06/01 07:49:13;;;;;;;;;;;22.20;65.30;;;;;;4990396;28;75983;-64
2021/06/01 07:51:38;;;;;;;;;;;22.10;65.30;;;;;;4990923;28;75377;-71
2021/06/01 07:54:05;;;;;;;;;;;22.20;66.00;;;;;;4990238;28;77096;-70
2021/06/01 07:56:31;;;;;;;;;;;22.10;65.00;;;;;;4990291;28;77408;-70
2021/06/01 07:58:56;;;;;;;;;;;22.20;65.80;;;;;;4990481;28;77633;-70
2021/06/01 08:01:22;;;;;;;;;;;22.30;65.90;;;;;;4990364;28;75445;-69
2021/06/01 08:03:48;;;;;;;;;;;22.40;66.00;;;;;;4990388;28;76897;-69
2021/06/01 08:06:13;;;;;;;;;;;22.50;65.30;;;;;;4991799;28;74976;-71
2021/06/01 08:08:39;;;;;;;;;;;22.70;64.80;;;;;;4991877;28;75323;-68
2021/06/01 08:11:05;;;;;;;;;;;22.90;64.30;;;;;;4989933;28;75949;-64
2021/06/01 08:13:31;;;;;;;;;;;22.90;63.80;;;;;;4993443;28;74482;-65
2021/06/01 08:15:57;;;;;;;;;;;23.00;63.60;;;;;;4993836;28;76652;-65
2021/06/01 08:18:26;;;;;;;;;;;23.10;63.40;;;;;;4995522;28;75666;-66
2021/06/01 08:20:57;;;;;;;;;;;23.10;62.30;;;;;;4993810;28;75929;-67
2021/06/01 08:23:23;;;;;;;;;;;22.80;62.30;;;;;;4995058;28;74985;-67
2021/06/01 08:25:49;;;;;;;;;;;22.60;63.60;;;;;;4994903;28;75713;-68
2021/06/01 08:28:14;;;;;;;;;;;22.50;64.30;;;;;;4993710;28;75431;-68
2021/06/01 08:30:40;;;;;;;;;;;22.70;64.30;;;;;;4993572;28;76396;-68
2021/06/01 08:33:06;;;;;;;;;;;23.00;63.90;;;;;;4995249;28;74484;-68
2021/06/01 08:35:31;;;;;;;;;;;23.50;62.40;;;;;;4993209;28;76470;-67
2021/06/01 08:37:57;;;;;;;;;;;23.70;61.20;;;;;;4993447;28;76060;-67
2021/06/01 08:40:22;;;;;;;;;;;23.70;61.00;;;;;;5010177;28;76799;-68
2021/06/01 08:42:49;;;;;;;;;;;23.40;61.00;;;;;;4994802;28;75097;-68
2021/06/01 08:45:14;;;;;;;;;;;23.40;61.80;;;;;;4994495;28;75281;-67
2021/06/01 08:47:41;;;;;;;;;;;23.40;61.80;;;;;;4994936;28;75027;-67
2021/06/01 08:50:10;;;;;;;;;;;23.70;61.10;;;;;;4994994;28;75273;-67
2021/06/01 08:52:36;;;;;;;;;;;23.90;60.60;;;;;;4994655;28;75702;-67
2021/06/01 08:55:05;;;;;;;;;;;24.00;60.70;;;;;;4993083;28;77467;-67
2021/06/01 08:57:33;;;;;;;;;;;24.10;59.60;;;;;;4994638;28;75178;-66
2021/06/01 09:00:00;;;;;;;;;;;23.90;59.70;;;;;;4992482;28;94535;-66
2021/06/01 09:02:26;;;;;;;;;;;23.90;60.50;;;;;;4994535;28;75308;-63
2021/06/01 09:04:58;;;;;;;;;;;24.00;59.90;;;;;;4993009;28;77847;-63
2021/06/01 09:07:39;;;;;;;;;;;24.20;59.50;;;;;;4994473;28;75175;-64
2021/06/01 09:21:33;;;;;;;;;;;23.60;60.70;;;;;;4994364;28;74952;-64
2021/06/01 09:24:02;;;;;;;;;;;23.40;60.60;;;;;;4993809;28;75257;-62
2021/06/01 09:27:07;;;;;;;;;;;23.20;61.50;;;;;;4992141;28;76380;-63
2021/06/01 09:29:28;;;;;;;;;;;23.10;62.30;;;;;;4993495;28;74844;-64
2021/06/01 09:32:14;;;;;;;;;;;23.10;63.20;;;;;;4994009;28;75261;-64
2021/06/01 09:34:42;;;;;;;;;;;23.40;62.00;;;;;;4992344;28;78444;-64
2021/06/01 09:37:16;;;;;;;;;;;23.80;61.40;;;;;;4993958;28;74542;-64
2021/06/01 09:39:42;;;;;;;;;;;24.00;60.40;;;;;;4994095;28;75191;-63
2021/06/01 09:42:34;;;;;;;;;;;24.40;59.60;;;;;;4992363;28;78062;-63
2021/06/01 09:45:01;;;;;;;;;;;24.60;59.00;;;;;;4992711;28;75235;-64
2021/06/01 09:47:40;;;;;;;;;;;24.90;58.80;;;;;;5008891;28;77129;-65
2021/06/01 09:50:17;;;;;;;;;;;25.10;57.90;;;;;;4991991;28;77997;-66
2021/06/01 09:52:44;;;;;;;;;;;25.20;56.70;;;;;;4992007;28;77714;-63
2021/06/01 09:55:23;;;;;;;;;;;24.90;56.70;;;;;;4993417;28;75338;-61
2021/06/01 09:57:48;;;;;;;;;;;24.80;57.70;;;;;;4992025;28;75818;-63
2021/06/01 10:00:19;;;;;;;;;;;24.90;57.30;;;;;;4992128;28;75917;-63
2021/06/01 10:03:04;;;;;;;;;;;24.90;57.20;;;;;;4993705;28;75139;-63
2021/06/01 10:05:37;;;;;;;;;;;24.60;55.40;;;;;;4992896;28;75145;-64
2021/06/01 10:08:10;;;;;;;;;;;24.30;56.60;;;;;;4992059;28;75366;-64
2021/06/01 10:10:36;;;;;;;;;;;24.40;55.80;;;;;;4991633;28;77953;-65
2021/06/01 10:13:06;;;;;;;;;;;24.60;55.60;;;;;;4991894;28;76356;-65
2021/06/01 10:15:32;;;;;;;;;;;25.00;55.30;;;;;;5008760;28;74756;-66
2021/06/01 10:17:58;;;;;;;;;;;25.30;53.70;;;;;;4993301;28;75459;-65
2021/06/01 10:20:25;;;;;;;;;;;25.40;52.90;;;;;;4991801;28;77258;-63
2021/06/01 10:22:51;;;;;;;;;;;25.50;52.80;;;;;;4993567;28;74713;-64
2021/06/01 10:25:17;;;;;;;;;;;25.50;52.40;;;;;;4991715;28;74556;-62
2021/06/01 10:27:44;;;;;;;;;;;25.40;52.80;;;;;;5008420;28;75979;-63
2021/06/01 10:30:10;;;;;;;;;;;25.10;53.20;;;;;;5008321;28;75555;-62
2021/06/01 10:32:37;;;;;;;;;;;25.00;52.80;;;;;;5008508;28;75245;-65
2021/06/01 10:35:04;;;;;;;;;;;25.10;53.40;;;;;;4991403;28;77871;-63
2021/06/01 10:48:51;;;;;;;;;;;26.50;49.40;;;;;;4990070;28;75002;-62
2021/06/01 10:51:50;;;;;;;;;;;26.50;48.70;;;;;;4991159;28;77308;-63
2021/06/01 10:54:10;;;;;;;;;;;26.70;48.20;;;;;;4993448;28;75701;-62
2021/06/01 10:56:44;;;;;;;;;;;27.00;45.90;;;;;;4991011;28;75801;-62
2021/06/01 10:59:12;;;;;;;;;;;27.00;46.00;;;;;;4992319;28;74670;-63
2021/06/01 11:01:49;;;;;;;;;;;27.30;45.00;;;;;;4992658;28;74921;-64
2021/06/01 11:04:18;;;;;;;;;;;27.50;45.00;;;;;;4990777;28;76656;-63
2021/06/01 11:06:48;;;;;;;;;;;27.90;42.80;;;;;;4991597;28;76595;-64
2021/06/01 11:09:32;;;;;;;;;;;28.00;43.70;;;;;;4993188;28;74507;-64
2021/06/01 11:12:22;;;;;;;;;;;28.10;43.60;;;;;;4991109;28;75976;-64
2021/06/01 11:14:49;;;;;;;;;;;28.10;43.10;;;;;;4992857;28;74655;-63
2021/06/01 11:17:15;;;;;;;;;;;27.80;43.10;;;;;;4992903;28;74625;-66
2021/06/01 11:19:45;;;;;;;;;;;27.60;43.60;;;;;;4990971;28;77741;-65
2021/06/01 11:22:21;;;;;;;;;;;28.40;42.00;;;;;;4992362;28;75770;-64
2021/06/01 11:35:47;;;;;;;;;;;28.60;40.30;;;;;;4989787;28;75157;-65
2021/06/01 11:41:02;;;;;;;;;;;29.20;39.00;;;;;;4989693;28;75125;-63
2021/06/01 11:43:28;;;;;;;;;;;29.70;38.80;;;;;;4992535;28;75186;-64
2021/06/01 11:50:58;;;;;;;;;;;31.40;37.00;;;;;;4991873;28;75124;-66
2021/06/01 11:51:26;;;;;;;;;;;32.60;33.40;;;;;;4992273;28;75092;-64
2021/06/01 11:53:51;;;;;;;;;;;30.60;36.00;;;;;;4995740;28;75405;-65
2021/06/01 12:18:36;;;;;;;;;;;31.30;34.70;;;;;;4994895;28;74886;-63
2021/06/01 12:21:04;;;;;;;;;;;31.20;35.80;;;;;;4995028;28;74463;-64
2021/06/01 12:23:36;;;;;;;;;;;32.50;33.40;;;;;;4995225;28;75117;-64
2021/06/01 12:31:47;;;;;;;;;;;31.80;33.30;;;;;;4995564;28;74483;-65
2021/06/01 12:34:17;;;;;;;;;;;31.50;33.20;;;;;;4994352;28;76987;-65
2021/06/01 12:42:55;;;;;;;;;;;28.30;38.30;;;;;;4993092;28;74662;-66
2021/06/01 13:14:04;;;;;;;;;;;41.10;23.60;;;;;;4999886;28;75136;-64
2021/06/01 13:19:26;;;;;;;;;;;43.50;21.60;;;;;;4982334;28;75001;-67
2021/06/01 13:22:22;;;;;;;;;;;44.40;20.50;;;;;;4988749;28;75744;-64
2021/06/01 13:30:33;;;;;;;;;;;41.60;20.80;;;;;;4994880;28;74443;-65
2021/06/01 13:38:40;;;;;;;;;;;44.30;19.60;;;;;;4994213;28;74857;-65
2021/06/01 13:46:44;;;;;;;;;;;45.50;18.20;;;;;;4991254;28;74906;-64
2021/06/01 13:59:49;;;;;;;;;;;42.20;20.30;;;;;;4990904;28;75000;-67
2021/06/01 15:50:54;;;;;;;;;;;28.50;30.90;;;;;;4989547;28;75389;-65
2021/06/01 15:53:58;;;;;;;;;;;28.50;31.20;;;;;;4990610;28;77872;-63
2021/06/01 16:13:27;;;;;;;;;;;28.40;31.20;;;;;;4992069;28;74940;-61
2021/06/01 16:21:29;;;;;;;;;;;29.00;29.80;;;;;;4992098;28;74995;-63
2021/06/01 16:43:11;;;;;;;;;;;28.00;31.70;;;;;;4995494;28;74494;-63
2021/06/01 17:04:52;;;;;;;;;;;26.90;31.00;;;;;;4994543;28;74864;-64
2021/06/01 17:08:17;;;;;;;;;;;26.80;31.50;;;;;;4992789;28;75810;-64
2021/06/01 17:13:02;;;;;;;;;;;27.00;31.00;;;;;;4994188;28;75016;-62
2021/06/01 17:15:28;;;;;;;;;;;27.40;29.60;;;;;;4994711;28;75070;-63
2021/06/01 17:18:00;;;;;;;;;;;28.00;28.50;;;;;;4993056;28;76812;-64
2021/06/01 17:31:00;;;;;;;;;;;29.90;27.30;;;;;;4995102;28;74845;-64
2021/06/01 17:36:12;;;;;;;;;;;28.20;29.40;;;;;;4994504;28;74507;-62
2021/06/01 17:38:40;;;;;;;;;;;27.60;30.20;;;;;;4994055;28;75178;-63
2021/06/01 17:41:10;;;;;;;;;;;27.40;31.00;;;;;;4993802;28;75059;-63
2021/06/01 17:43:36;;;;;;;;;;;27.60;31.20;;;;;;4993920;28;75275;-63
2021/06/01 17:46:04;;;;;;;;;;;28.20;30.50;;;;;;4994036;28;74577;-62
2021/06/01 17:51:15;;;;;;;;;;;29.60;28.60;;;;;;4994111;28;74965;-63
2021/06/01 17:53:43;;;;;;;;;;;29.90;28.20;;;;;;4993668;28;74507;-63
2021/06/01 17:56:11;;;;;;;;;;;29.90;28.40;;;;;;4992363;28;76121;-63
2021/06/01 17:58:38;;;;;;;;;;;30.00;28.00;;;;;;4993752;28;75221;-63
2021/06/01 18:01:04;;;;;;;;;;;29.90;26.60;;;;;;4994332;28;74625;-64
2021/06/01 18:03:31;;;;;;;;;;;29.40;26.90;;;;;;4993457;28;75195;-62
2021/06/01 18:05:57;;;;;;;;;;;29.20;27.30;;;;;;4992771;28;75420;-63
2021/06/01 18:08:49;;;;;;;;;;;29.00;27.50;;;;;;4991952;28;76058;-63
2021/06/01 18:37:01;;;;;;;;;;;26.10;31.20;;;;;;4993813;28;74879;-64
2021/06/01 19:01:53;;;;;;;;;;;24.50;33.50;;;;;;4991866;28;74946;-64
2021/06/01 19:50:16;;;;;;;;;;;23.40;37.70;;;;;;4992837;28;74919;-67
2021/06/01 19:52:43;;;;;;;;;;;23.40;37.60;;;;;;4992690;28;75847;-70
2021/06/01 19:55:09;;;;;;;;;;;23.20;37.60;;;;;;4992365;28;75036;-70
2021/06/01 19:57:35;;;;;;;;;;;23.20;38.20;;;;;;4992190;28;75237;-71
2021/06/01 20:00:00;;;;;;;;;;;23.10;38.20;;;;;;4991204;28;77004;-71
2021/06/01 20:02:28;;;;;;;;;;;23.10;38.50;;;;;;4992573;28;74960;-66
2021/06/01 20:04:54;;;;;;;;;;;23.10;38.70;;;;;;4992358;28;75014;-68
2021/06/01 20:07:21;;;;;;;;;;;23.00;38.50;;;;;;4992279;28;75420;-67
2021/06/01 20:09:47;;;;;;;;;;;23.00;38.70;;;;;;4993666;28;78581;-67
2021/06/01 20:12:13;;;;;;;;;;;23.00;38.60;;;;;;4995697;28;75218;-67
2021/06/01 20:14:39;;;;;;;;;;;22.90;39.00;;;;;;4994097;28;77479;-67
2021/06/01 20:17:11;;;;;;;;;;;22.90;39.00;;;;;;4993924;28;78055;-67
2021/06/01 20:19:38;;;;;;;;;;;22.90;39.50;;;;;;4994109;28;77344;-69
2021/06/01 20:22:04;;;;;;;;;;;22.80;39.90;;;;;;4994247;28;77458;-68
2021/06/01 20:24:32;;;;;;;;;;;22.70;40.70;;;;;;4995533;28;75208;-67
2021/06/01 20:27:02;;;;;;;;;;;22.60;40.60;;;;;;4995534;28;74544;-67
2021/06/01 20:29:32;;;;;;;;;;;22.60;40.80;;;;;;4995453;28;75285;-67
2021/06/01 20:33:06;;;;;;;;;;;22.50;41.30;;;;;;4995142;28;76457;-66
2021/06/01 20:34:46;;;;;;;;;;;22.50;41.90;;;;;;4994789;28;75310;-68
2021/06/01 20:37:12;;;;;;;;;;;22.40;41.90;;;;;;4994188;28;78313;-68
2021/06/01 20:39:40;;;;;;;;;;;22.40;42.10;;;;;;4993729;28;77360;-69
2021/06/01 20:42:06;;;;;;;;;;;22.40;42.40;;;;;;4995293;28;75175;-68
2021/06/01 20:44:32;;;;;;;;;;;22.30;42.70;;;;;;4993684;28;75354;-68
2021/06/01 20:46:58;;;;;;;;;;;22.30;43.10;;;;;;4995573;28;75703;-66
2021/06/01 20:49:24;;;;;;;;;;;22.30;42.90;;;;;;4994924;28;75219;-67
2021/06/01 20:51:51;;;;;;;;;;;22.20;43.70;;;;;;4995747;28;74655;-67
2021/06/01 20:54:17;;;;;;;;;;;22.20;43.30;;;;;;4995005;28;74901;-65
2021/06/01 20:56:43;;;;;;;;;;;22.10;43.70;;;;;;4994096;28;74966;-67
2021/06/01 20:59:09;;;;;;;;;;;22.10;43.90;;;;;;4994824;28;76615;-68
2021/06/01 21:01:35;;;;;;;;;;;22.00;44.10;;;;;;4994635;28;76362;-67
2021/06/01 21:04:02;;;;;;;;;;;22.00;44.00;;;;;;4995027;28;75400;-67
2021/06/01 21:06:28;;;;;;;;;;;22.00;44.10;;;;;;4993685;28;77166;-69
2021/06/01 21:08:56;;;;;;;;;;;22.00;44.40;;;;;;4994661;28;75213;-66
2021/06/01 21:11:21;;;;;;;;;;;21.90;44.40;;;;;;4993629;28;78236;-69
2021/06/01 21:13:48;;;;;;;;;;;21.90;44.50;;;;;;4994206;28;74387;-65
2021/06/01 21:16:13;;;;;;;;;;;21.90;44.70;;;;;;4994832;28;75782;-67
2021/06/01 21:18:39;;;;;;;;;;;21.90;45.00;;;;;;4994834;28;76199;-68
2021/06/01 21:21:07;;;;;;;;;;;21.80;45.30;;;;;;4993884;28;75253;-68